Time;durP1;ratioP1;P1;durP2;ratioP2;P2;SDS_P1;SDS_P2;PMS_P1;PMS_P2;Temp;Humidity;BMP_temperature;BMP_pressure;BME280_temperature;BME280_humidity;BME280_pressure;Samples;Min_cycle;Max_cycle;Signal;HPM_P1;HPM_P2
2022/08/08 00:09:52;;;;;;;3.85;1.70;;;;;;;22.27;52.11;100765.34;18308491;32;20362;-55
2022/08/08 00:20:00;;;;;;;2.77;1.50;;;;;;;22.15;52.49;100758.78;18290956;32;20492;-54
2022/08/08 00:30:06;;;;;;;3.17;1.65;;;;;;;22.05;53.02;100750.34;18290974;32;20121;-55
2022/08/08 00:40:47;;;;;;;3.85;1.70;;;;;;;22.10;52.95;100728.87;18353431;32;20097;-55
2022/08/08 00:51:39;;;;;;;3.70;1.83;;;;;;;22.15;53.24;100734.88;18432298;32;20123;-55
2022/08/08 01:01:56;;;;;;;2.37;1.40;;;;;;;22.17;52.97;100712.59;18435907;32;20113;-55
2022/08/08 01:12:35;;;;;;;3.62;1.48;;;;;;;22.34;52.69;100708.31;18435539;32;20089;-55
2022/08/08 01:23:05;;;;;;;2.53;1.27;;;;;;;22.30;52.56;100699.59;18297466;32;20140;-55
2022/08/08 01:33:51;;;;;;;4.05;1.67;;;;;;;22.34;52.77;100736.69;18319186;32;20096;-55
2022/08/08 01:44:08;;;;;;;4.00;1.92;;;;;;;22.49;52.20;100722.72;18434564;32;20092;-55
2022/08/08 01:54:23;;;;;;;3.25;1.52;;;;;;;22.52;51.96;100722.56;18433916;32;20115;-55
2022/08/08 02:04:54;;;;;;;3.03;1.60;;;;;;;22.41;52.64;100719.50;18434712;32;20088;-55
2022/08/08 02:15:08;;;;;;;2.47;1.42;;;;;;;22.41;52.71;100711.53;18433278;32;20096;-55
2022/08/08 02:25:20;;;;;;;2.40;1.45;;;;;;;22.29;53.10;100689.91;18433223;32;20111;-55
2022/08/08 02:35:42;;;;;;;2.03;1.40;;;;;;;22.15;53.38;100695.00;18432564;32;20120;-55
2022/08/08 02:46:27;;;;;;;2.58;1.35;;;;;;;22.26;52.17;100705.97;18432634;32;20135;-55
2022/08/08 02:57:13;;;;;;;3.42;1.75;;;;;;;22.13;51.77;100731.41;18424266;32;20097;-55
2022/08/08 03:07:55;;;;;;;1.98;1.20;;;;;;;21.73;52.34;100750.88;18456299;32;20127;-55
2022/08/08 03:18:07;;;;;;;2.53;1.40;;;;;;;21.72;53.01;100735.00;18494580;32;20111;-55
2022/08/08 03:28:16;;;;;;;1.87;1.30;;;;;;;21.80;52.78;100745.28;18497579;32;20123;-55
2022/08/08 03:38:22;;;;;;;3.47;1.50;;;;;;;21.63;53.29;100760.16;18495091;32;20128;-55
2022/08/08 03:48:56;;;;;;;2.92;1.30;;;;;;;21.39;53.85;100770.00;18496832;32;20100;-55
2022/08/08 03:59:19;;;;;;;3.10;1.70;;;;;;;21.44;54.32;100763.59;18495330;32;20154;-55
2022/08/08 04:09:26;;;;;;;4.18;1.40;;;;;;;21.55;53.65;100767.56;18470587;32;20128;-55
2022/08/08 04:19:32;;;;;;;2.67;1.48;;;;;;;21.62;53.76;100758.38;18454616;32;20103;-55
2022/08/08 04:29:40;;;;;;;2.67;1.30;;;;;;;21.95;53.32;100752.56;18493515;32;20104;-55
2022/08/08 04:40:03;;;;;;;3.97;1.50;;;;;;;22.25;49.87;100744.16;18493324;32;20088;-55
2022/08/08 04:50:14;;;;;;;5.85;2.25;;;;;;;23.02;46.72;100757.44;18492904;32;20371;-55
2022/08/08 05:00:30;;;;;;;2.62;1.30;;;;;;;23.23;47.47;100787.47;18493115;32;20097;-55
2022/08/08 05:10:34;;;;;;;5.03;1.10;;;;;;;23.48;47.70;100772.09;18490942;32;20110;-56
2022/08/08 05:20:37;;;;;;;9.05;1.98;;;;;;;23.68;46.60;100777.25;18463078;32;20369;-56
2022/08/08 05:30:53;;;;;;;3.65;1.40;;;;;;;23.82;48.18;100787.22;18424332;32;20107;-56
2022/08/08 05:41:11;;;;;;;1.60;1.00;;;;;;;24.08;46.26;100790.34;18461544;32;20140;-56
2022/08/08 05:51:17;;;;;;;1.70;1.08;;;;;;;24.48;44.75;100798.03;18497260;32;20096;-55
2022/08/08 06:01:22;;;;;;;3.17;0.93;;;;;;;24.68;42.48;100798.72;18492215;32;20092;-56
2022/08/08 06:11:47;;;;;;;2.00;0.80;;;;;;;25.35;41.76;100795.88;18495116;32;20103;-55
2022/08/08 06:21:51;;;;;;;2.78;1.10;;;;;;;25.41;41.80;100794.62;18491838;32;20093;-56
2022/08/08 06:32:03;;;;;;;2.00;0.90;;;;;;;25.44;42.30;100797.13;18454438;32;20486;-55
2022/08/08 06:42:18;;;;;;;1.67;0.90;;;;;;;26.33;38.48;100799.91;18472900;32;20138;-56
2022/08/08 06:52:24;;;;;;;1.85;0.95;;;;;;;26.94;33.34;100799.66;18474061;32;20088;-56
2022/08/08 07:02:32;;;;;;;17.33;4.43;;;;;;;26.49;33.52;100798.94;18424214;32;20099;-55
2022/08/08 07:12:44;;;;;;;4.07;1.10;;;;;;;26.60;32.70;100791.94;18430200;32;20081;-57
2022/08/08 07:22:57;;;;;;;1.42;0.90;;;;;;;26.93;34.94;100794.41;18415460;32;20119;-56
2022/08/08 07:33:02;;;;;;;3.60;1.00;;;;;;;25.75;35.79;100800.69;18475874;32;20368;-56
2022/08/08 07:43:05;;;;;;;2.75;0.80;;;;;;;26.43;34.62;100808.22;18495684;32;20399;-55
2022/08/08 07:53:18;;;;;;;2.97;1.00;;;;;;;25.84;34.69;100818.00;18493846;32;20096;-56
2022/08/08 08:03:46;;;;;;;3.03;1.13;;;;;;;26.30;35.61;100813.50;18488907;32;20397;-55
2022/08/08 08:13:57;;;;;;;1.02;0.90;;;;;;;26.73;34.06;100824.13;18492119;32;20133;-56
2022/08/08 08:24:12;;;;;;;2.12;0.85;;;;;;;27.03;34.42;100824.09;18493330;32;20433;-56
2022/08/08 08:34:18;;;;;;;4.00;0.90;;;;;;;27.56;33.35;100835.81;18450264;32;20102;-56
2022/08/08 08:44:25;;;;;;;2.47;1.10;;;;;;;27.69;37.51;100835.84;18403622;32;20112;-56
2022/08/08 08:54:34;;;;;;;2.47;0.90;;;;;;;27.20;41.75;100850.66;18404799;32;20385;-55
2022/08/08 09:04:40;;;;;;;2.50;1.05;;;;;;;27.37;40.50;100849.56;18405899;32;20120;-55
2022/08/08 09:14:55;;;;;;;1.60;0.90;;;;;;;27.65;40.09;100857.59;18441994;32;20088;-56
2022/08/08 09:24:59;;;;;;;1.80;0.93;;;;;;;28.24;36.58;100842.88;18457208;32;20114;-56
2022/08/08 09:35:06;;;;;;;2.10;1.00;;;;;;;28.81;35.22;100840.66;18491537;32;20092;-55
2022/08/08 09:45:11;;;;;;;2.67;0.70;;;;;;;28.88;34.51;100841.09;18495664;32;20455;-56
2022/08/08 09:55:37;;;;;;;2.47;0.93;;;;;;;28.93;32.65;100830.88;18496322;32;20131;-56
2022/08/08 10:06:00;;;;;;;2.67;0.90;;;;;;;28.84;32.29;100832.41;18492413;32;20119;-55
2022/08/08 10:16:05;;;;;;;1.60;0.90;;;;;;;28.20;33.68;100834.19;18495565;32;20521;-55
2022/08/08 10:26:16;;;;;;;1.85;1.02;;;;;;;28.58;32.47;100853.94;18495426;32;20162;-55
2022/08/08 10:36:34;;;;;;;2.08;0.80;;;;;;;27.59;34.94;100842.78;18496947;32;20088;-55
2022/08/08 10:46:41;;;;;;;3.85;1.25;;;;;;;27.60;34.99;100833.78;18497111;32;20089;-55
2022/08/08 10:56:57;;;;;;;20.42;2.47;;;;;;;28.75;33.92;100835.75;18496219;32;20111;-55
2022/08/08 11:07:02;;;;;;;1.17;1.00;;;;;;;29.08;32.98;100836.94;18496144;32;20107;-55
2022/08/08 11:17:07;;;;;;;3.47;1.40;;;;;;;29.03;32.85;100820.31;18490195;32;224772;-55
2022/08/08 11:27:17;;;;;;;2.10;1.10;;;;;;;29.14;34.23;100822.19;18495479;32;20100;-55
2022/08/08 11:37:24;;;;;;;2.40;0.85;;;;;;;29.27;34.17;100803.31;18474304;32;20128;-55
2022/08/08 11:47:48;;;;;;;3.78;1.55;;;;;;;29.15;35.41;100814.03;18495489;32;20120;-55
2022/08/08 11:58:11;;;;;;;3.80;2.20;;;;;;;29.13;37.09;100821.34;18491097;32;20122;-55
2022/08/08 12:08:30;;;;;;;3.55;2.15;;;;;;;28.74;40.66;100834.00;18491833;32;20100;-55
2022/08/08 12:18:44;;;;;;;4.70;2.40;;;;;;;28.27;43.30;100829.28;18475905;32;20144;-55
2022/08/08 12:28:55;;;;;;;5.47;2.53;;;;;;;28.10;45.91;100819.66;18491394;32;20176;-55
2022/08/08 12:39:00;;;;;;;3.95;2.15;;;;;;;27.78;46.56;100836.19;18445214;32;20537;-55
2022/08/08 12:49:08;;;;;;;5.60;2.63;;;;;;;27.23;48.25;100861.19;18485093;32;20169;-55
2022/08/08 12:59:50;;;;;;;5.25;2.75;;;;;;;26.69;50.01;100844.06;18496699;32;20460;-55
2022/08/08 13:10:09;;;;;;;6.43;2.75;;;;;;;26.27;50.95;100851.13;18498322;32;20146;-55
2022/08/08 13:20:15;;;;;;;4.30;2.12;;;;;;;26.44;51.45;100867.00;18490020;32;20089;-55
2022/08/08 13:30:23;;;;;;;4.70;2.62;;;;;;;27.49;47.36;100865.78;18495182;32;20108;-54
2022/08/08 13:40:30;;;;;;;5.35;2.60;;;;;;;27.86;45.66;100865.16;18496489;32;20534;-55
2022/08/08 13:50:35;;;;;;;3.87;1.92;;;;;;;27.42;46.29;100865.34;18496226;32;20119;-55
2022/08/08 14:00:55;;;;;;;4.53;2.05;;;;;;;27.59;44.78;100848.16;18493979;32;20503;-55
2022/08/08 14:10:58;;;;;;;3.67;1.90;;;;;;;27.58;43.88;100849.12;18495740;32;20123;-55
2022/08/08 14:21:05;;;;;;;3.28;1.60;;;;;;;27.48;43.57;100840.78;18495576;32;20101;-56
2022/08/08 14:31:16;;;;;;;1.87;1.40;;;;;;;27.51;41.73;100845.97;18496426;32;20182;-55
2022/08/08 14:41:28;;;;;;;3.95;1.55;;;;;;;27.43;41.93;100843.78;18465724;32;20093;-56
2022/08/08 14:51:51;;;;;;;2.80;1.70;;;;;;;27.66;40.80;100829.81;18412722;32;20077;-56
2022/08/08 15:01:57;;;;;;;3.83;1.60;;;;;;;27.44;41.64;100833.94;18416213;32;20115;-56
2022/08/08 15:12:01;;;;;;;4.37;1.70;;;;;;;27.75;41.48;100842.59;18413296;32;20140;-55
2022/08/08 15:22:06;;;;;;;2.33;1.60;;;;;;;27.82;41.59;100843.91;18391754;32;20085;-56
2022/08/08 15:32:12;;;;;;;2.72;1.55;;;;;;;27.38;42.89;100835.19;18437714;32;20123;-55
2022/08/08 15:42:25;;;;;;;3.72;1.73;;;;;;;27.42;42.66;100842.06;18493714;32;20101;-56
2022/08/08 15:52:35;;;;;;;3.72;2.03;;;;;;;27.61;42.87;100840.03;18489031;32;20119;-56
2022/08/08 16:02:42;;;;;;;3.42;1.90;;;;;;;26.98;44.33;100837.78;18457330;32;20105;-55
2022/08/08 16:12:54;;;;;;;3.33;1.90;;;;;;;26.00;47.63;100836.63;18430416;32;20103;-56
2022/08/08 16:23:20;;;;;;;4.80;2.35;;;;;;;26.70;46.80;100844.91;18436564;32;20120;-56
2022/08/08 16:33:23;;;;;;;3.87;1.83;;;;;;;26.91;46.30;100837.34;18466195;32;20088;-55
2022/08/08 16:43:41;;;;;;;3.42;1.55;;;;;;;26.54;47.07;100831.62;18491789;32;20760;-57
2022/08/08 16:53:54;;;;;;;5.05;2.00;;;;;;;26.32;45.86;100838.31;18470445;32;20108;-56
2022/08/08 17:04:18;;;;;;;2.90;2.00;;;;;;;26.35;45.53;100843.47;18463449;32;20124;-56
2022/08/08 17:14:24;;;;;;;4.20;2.00;;;;;;;26.19;46.76;100846.22;18489405;32;20388;-56
2022/08/08 17:24:37;;;;;;;3.83;2.00;;;;;;;25.97;47.10;100852.00;18479228;32;20128;-57
2022/08/08 17:34:41;;;;;;;2.75;1.75;;;;;;;25.90;47.47;100862.22;18430220;32;20531;-57
2022/08/08 17:45:07;;;;;;;4.97;2.10;;;;;;;25.93;47.20;100863.84;18458024;32;20182;-56
2022/08/08 17:55:26;;;;;;;4.22;1.90;;;;;;;25.72;48.08;100874.88;18494888;32;20353;-57
2022/08/08 18:05:50;;;;;;;4.22;1.87;;;;;;;25.60;48.46;100877.28;18469359;32;20480;-56
2022/08/08 18:15:54;;;;;;;5.32;2.22;;;;;;;25.52;48.62;100868.00;18433457;32;20460;-56
2022/08/08 18:26:09;;;;;;;4.68;1.60;;;;;;;25.25;49.66;100881.97;18478526;32;20445;-57
2022/08/08 18:36:12;;;;;;;4.25;2.20;;;;;;;24.92;50.47;100897.13;18496910;32;20105;-56
2022/08/08 18:46:28;;;;;;;4.22;1.90;;;;;;;24.59;51.24;100900.66;18497169;32;20104;-57
2022/08/08 18:56:52;;;;;;;4.87;2.20;;;;;;;24.27;52.28;100909.41;18495088;32;20096;-56
2022/08/08 19:06:57;;;;;;;3.87;2.03;;;;;;;24.17;52.60;100918.81;18497307;32;20100;-57
2022/08/08 19:17:03;;;;;;;4.00;2.05;;;;;;;23.79;53.91;100909.13;18434301;32;20100;-56
2022/08/08 19:27:09;;;;;;;3.72;2.33;;;;;;;23.57;54.59;100910.19;18481049;32;20108;-56
2022/08/08 19:37:13;;;;;;;6.25;2.35;;;;;;;23.26;55.47;100922.28;18489292;32;20138;-56
2022/08/08 19:47:20;;;;;;;5.03;2.17;;;;;;;23.04;55.90;100920.63;18481361;32;20472;-56
2022/08/08 19:57:27;;;;;;;4.60;2.20;;;;;;;22.94;56.16;100930.84;18492086;32;20175;-56
2022/08/08 20:07:32;;;;;;;5.60;2.50;;;;;;;22.69;57.04;100937.25;18490903;32;20097;-57
2022/08/08 20:17:55;;;;;;;5.37;2.70;;;;;;;22.74;57.31;100931.75;18478103;32;20097;-56
2022/08/08 20:28:01;;;;;;;4.18;2.15;;;;;;;22.79;57.55;100924.41;18489897;32;20107;-56
2022/08/08 20:38:18;;;;;;;6.20;3.10;;;;;;;22.99;57.08;100914.66;18490385;32;20105;-56
2022/08/08 20:48:33;;;;;;;4.57;2.40;;;;;;;22.63;58.63;100916.28;18486977;32;20096;-57
2022/08/08 20:58:38;;;;;;;5.87;2.92;;;;;;;23.11;57.01;100929.22;18486556;32;20116;-57
2022/08/08 21:08:51;;;;;;;5.15;2.47;;;;;;;23.07;57.41;100917.84;18487667;32;20399;-56
2022/08/08 21:18:56;;;;;;;5.80;2.72;;;;;;;23.09;57.18;100917.75;18495695;32;20092;-57
2022/08/08 21:29:00;;;;;;;6.45;2.42;;;;;;;23.16;57.19;100929.00;18483086;32;20155;-56
2022/08/08 21:39:04;;;;;;;4.75;2.40;;;;;;;23.16;57.02;100923.66;18474433;32;20101;-56
2022/08/08 21:49:12;;;;;;;5.80;2.60;;;;;;;22.95;57.70;100942.34;18494539;32;20138;-56
2022/08/08 21:59:18;;;;;;;3.00;2.25;;;;;;;22.76;57.69;100948.50;18494689;32;20377;-56
2022/08/08 22:09:24;;;;;;;4.90;2.40;;;;;;;22.76;56.88;100956.47;18495833;32;20119;-56
2022/08/08 22:19:32;;;;;;;6.45;2.42;;;;;;;22.57;57.45;100965.31;18499360;32;20099;-56
2022/08/08 22:29:56;;;;;;;7.75;2.33;;;;;;;22.38;57.70;100962.53;18497910;32;20104;-56
2022/08/08 22:40:06;;;;;;;4.10;2.37;;;;;;;22.22;58.02;100972.09;18498087;32;20427;-56
2022/08/08 22:50:20;;;;;;;4.70;2.20;;;;;;;21.95;59.12;100957.22;18498176;32;20084;-56
2022/08/08 23:00:31;;;;;;;5.20;2.33;;;;;;;21.99;59.21;100953.50;18497864;32;20138;-56
2022/08/08 23:10:36;;;;;;;4.07;2.40;;;;;;;21.96;59.39;100958.06;18497526;32;20097;-56
2022/08/08 23:20:44;;;;;;;6.20;2.67;;;;;;;21.83;59.61;100960.41;18497541;32;20137;-56
2022/08/08 23:30:58;;;;;;;6.25;2.70;;;;;;;21.83;59.66;100958.59;18495497;32;20092;-56
2022/08/08 23:41:02;;;;;;;5.75;2.67;;;;;;;21.89;60.15;100952.16;18496762;32;20150;-56
2022/08/08 23:51:20;;;;;;;5.43;2.40;;;;;;;21.86;60.42;100947.84;18496262;32;20705;-56
